createdAt,value
2022-09-06T00:08:17.228Z,0.73
2022-09-06T00:18:18.694Z,0.80
2022-09-06T00:28:19.914Z,0.90
2022-09-06T00:38:21.211Z,0.88
2022-09-06T00:48:23.395Z,1.20
2022-09-06T00:58:24.793Z,1.52
2022-09-06T01:08:39.847Z,1.52
2022-09-06T01:18:56.354Z,2.30
2022-09-06T01:28:57.590Z,2.15
2022-09-06T01:38:58.795Z,1.70
2022-09-06T01:49:03.076Z,1.95
2022-09-06T01:59:07.441Z,1.90
2022-09-06T02:09:13.118Z,1.88
2022-09-06T02:19:18.216Z,1.88
2022-09-06T02:29:19.577Z,2.17
2022-09-06T02:39:20.917Z,2.40
2022-09-06T02:49:22.130Z,2.15
2022-09-06T02:59:23.399Z,2.15
2022-09-06T03:09:25.132Z,2.63
2022-09-06T03:19:26.358Z,2.40
2022-09-06T03:29:27.598Z,2.50
2022-09-06T03:39:29.415Z,2.65
2022-09-06T03:49:30.653Z,2.33
2022-09-06T03:59:31.943Z,2.53
2022-09-06T04:09:33.179Z,2.50
2022-09-06T04:19:34.405Z,2.67
2022-09-06T04:29:35.642Z,2.65
2022-09-06T04:39:36.895Z,2.25
2022-09-06T04:49:38.270Z,2.25
2022-09-06T04:59:39.588Z,2.55
2022-09-06T05:09:40.932Z,2.33
2022-09-06T05:19:42.186Z,2.10
2022-09-06T05:29:43.408Z,1.67
2022-09-06T05:39:44.748Z,2.10
2022-09-06T05:49:46.280Z,1.98
2022-09-06T05:59:47.626Z,2.08
2022-09-06T06:09:48.884Z,1.90
2022-09-06T06:19:50.187Z,2.00
2022-09-06T06:29:52.440Z,2.38
2022-09-06T06:39:53.803Z,1.33
2022-09-06T06:49:55.095Z,1.40
2022-09-06T06:59:56.493Z,1.88
2022-09-06T07:20:20.424Z,1.20
2022-09-06T07:30:21.899Z,1.00
2022-09-06T07:40:23.840Z,1.00
2022-09-06T08:00:46.773Z,0.80
2022-09-06T08:10:51.287Z,0.85
2022-09-06T08:20:52.514Z,0.47
2022-09-06T08:30:53.740Z,0.70
2022-09-06T08:40:55.315Z,0.50
2022-09-06T08:50:59.396Z,0.38
2022-09-06T09:01:01.678Z,0.50
2022-09-06T09:11:06.881Z,0.50
2022-09-06T09:21:08.442Z,0.60
2022-09-06T09:31:10.113Z,0.50
2022-09-06T09:41:23.876Z,0.40
2022-09-06T09:51:27.340Z,0.40
2022-09-06T10:01:29.915Z,0.60
2022-09-06T10:11:38.453Z,0.47
2022-09-06T10:21:39.653Z,0.47
2022-09-06T10:31:53.182Z,0.50
2022-09-06T10:41:57.973Z,0.70
2022-09-06T10:52:00.276Z,0.57
2022-09-06T11:02:01.689Z,0.70
2022-09-06T11:12:07.963Z,0.80
2022-09-06T11:22:27.973Z,0.70
2022-09-06T11:32:33.177Z,0.73
2022-09-06T11:42:43.635Z,1.30
2022-09-06T11:52:57.755Z,0.90
2022-09-06T12:13:33.805Z,0.52
2022-09-06T12:23:35.140Z,1.63
2022-09-06T12:33:36.441Z,0.90
2022-09-06T12:43:38.482Z,1.10
2022-09-06T12:53:39.707Z,1.35
2022-09-06T13:03:43.830Z,0.90
2022-09-06T13:13:48.819Z,0.80
2022-09-06T13:23:51.264Z,1.13
2022-09-06T13:33:58.700Z,1.00
2022-09-06T13:44:21.266Z,0.93
2022-09-06T13:54:22.752Z,1.13
2022-09-06T14:04:24.120Z,0.90
2022-09-06T14:14:25.405Z,0.80
2022-09-06T14:24:26.636Z,1.00
2022-09-06T14:34:27.903Z,1.27
2022-09-06T14:44:29.157Z,0.80
2022-09-06T14:54:30.405Z,0.70
2022-09-06T15:04:31.896Z,1.10
2022-09-06T15:14:33.939Z,0.63
2022-09-06T15:24:36.621Z,0.90
2022-09-06T15:34:38.038Z,0.88
2022-09-06T15:44:39.524Z,0.90
2022-09-06T15:54:59.654Z,0.57
2022-09-06T16:05:01.407Z,0.75
2022-09-06T16:15:03.904Z,0.88
2022-09-06T16:25:05.430Z,0.70
2022-09-06T16:35:07.059Z,0.85
2022-09-06T16:45:08.612Z,3.13
2022-09-06T16:55:09.998Z,1.00
2022-09-06T17:05:11.549Z,0.65
2022-09-06T17:15:12.815Z,0.70
2022-09-06T17:25:14.720Z,1.23
2022-09-06T17:35:16.938Z,0.70
2022-09-06T17:45:18.683Z,0.82
2022-09-06T17:55:20.110Z,0.70
2022-09-06T18:05:21.604Z,0.40
2022-09-06T18:15:22.877Z,0.55
2022-09-06T18:25:24.606Z,0.82
2022-09-06T18:35:25.962Z,0.70
2022-09-06T18:45:28.345Z,0.93
2022-09-06T18:55:29.700Z,0.70
2022-09-06T19:05:30.993Z,0.68
2022-09-06T19:15:32.314Z,0.75
2022-09-06T19:25:33.547Z,0.80
2022-09-06T19:35:43.771Z,0.60
2022-09-06T19:45:57.289Z,1.00
2022-09-06T19:55:58.619Z,0.73
2022-09-06T20:06:00.396Z,0.68
2022-09-06T20:16:05.204Z,0.93
2022-09-06T20:26:07.933Z,0.77
2022-09-06T20:36:09.555Z,0.90
2022-09-06T20:46:17.325Z,0.57
2022-09-06T20:56:19.646Z,1.25
2022-09-06T21:06:21.123Z,1.00
2022-09-06T21:16:24.855Z,1.13
2022-09-06T21:26:26.437Z,1.10
2022-09-06T21:36:31.176Z,1.02
2022-09-06T21:46:33.756Z,1.00
2022-09-06T21:56:35.813Z,0.70
2022-09-06T22:06:37.649Z,0.50
2022-09-06T22:16:39.325Z,0.43
2022-09-06T22:26:40.801Z,0.70
2022-09-06T22:36:42.241Z,0.47
2022-09-06T22:46:43.665Z,0.68
2022-09-06T22:56:44.956Z,0.45
2022-09-06T23:06:46.310Z,0.50
2022-09-06T23:16:47.626Z,0.60
2022-09-06T23:26:48.931Z,0.68
2022-09-06T23:36:52.220Z,0.50
2022-09-06T23:46:53.521Z,0.50
2022-09-06T23:56:54.806Z,1.00
